sensor_id;sensor_type;location;lat;lon;timestamp;P1;durP1;ratioP1;P2;durP2;ratioP2
55732;SDS011;41637;52.364;9.910;2023-08-21T00:00:38;7.10;;;4.00;;
55732;SDS011;41637;52.364;9.910;2023-08-21T00:03:05;9.20;;;4.30;;
55732;SDS011;41637;52.364;9.910;2023-08-21T00:05:33;7.90;;;4.30;;
55732;SDS011;41637;52.364;9.910;2023-08-21T00:07:59;5.50;;;4.00;;
55732;SDS011;41637;52.364;9.910;2023-08-21T00:10:26;10.10;;;4.30;;
55732;SDS011;41637;52.364;9.910;2023-08-21T00:12:52;7.30;;;4.40;;
55732;SDS011;41637;52.364;9.910;2023-08-21T00:15:19;7.40;;;3.90;;
55732;SDS011;41637;52.364;9.910;2023-08-21T00:17:46;7.60;;;4.40;;
55732;SDS011;41637;52.364;9.910;2023-08-21T00:20:13;8.50;;;4.50;;
55732;SDS011;41637;52.364;9.910;2023-08-21T00:22:40;8.20;;;4.10;;
55732;SDS011;41637;52.364;9.910;2023-08-21T00:25:06;7.50;;;4.50;;
55732;SDS011;41637;52.364;9.910;2023-08-21T00:27:33;8.10;;;4.50;;
55732;SDS011;41637;52.364;9.910;2023-08-21T00:30:00;7.50;;;4.90;;
55732;SDS011;41637;52.364;9.910;2023-08-21T00:32:27;8.90;;;4.60;;
55732;SDS011;41637;52.364;9.910;2023-08-21T00:34:53;8.60;;;4.80;;
55732;SDS011;41637;52.364;9.910;2023-08-21T00:37:20;7.00;;;4.50;;
55732;SDS011;41637;52.364;9.910;2023-08-21T00:39:46;8.30;;;4.40;;
55732;SDS011;41637;52.364;9.910;2023-08-21T00:42:13;9.20;;;4.60;;
55732;SDS011;41637;52.364;9.910;2023-08-21T00:44:39;6.60;;;4.50;;
55732;SDS011;41637;52.364;9.910;2023-08-21T00:47:06;6.70;;;4.50;;
55732;SDS011;41637;52.364;9.910;2023-08-21T00:49:33;7.90;;;4.70;;
55732;SDS011;41637;52.364;9.910;2023-08-21T00:52:00;7.70;;;4.60;;
55732;SDS011;41637;52.364;9.910;2023-08-21T00:54:27;6.50;;;4.60;;
55732;SDS011;41637;52.364;9.910;2023-08-21T00:56:54;6.00;;;4.50;;
55732;SDS011;41637;52.364;9.910;2023-08-21T00:59:21;7.10;;;4.60;;
55732;SDS011;41637;52.364;9.910;2023-08-21T01:01:48;7.80;;;4.60;;
55732;SDS011;41637;52.364;9.910;2023-08-21T01:04:14;9.70;;;4.90;;
55732;SDS011;41637;52.364;9.910;2023-08-21T01:06:41;8.80;;;4.60;;
55732;SDS011;41637;52.364;9.910;2023-08-21T01:09:10;5.90;;;4.50;;
55732;SDS011;41637;52.364;9.910;2023-08-21T01:17:20;6.60;;;4.50;;
55732;SDS011;41637;52.364;9.910;2023-08-21T01:19:49;7.70;;;4.20;;
55732;SDS011;41637;52.364;9.910;2023-08-21T01:22:18;7.60;;;4.20;;
55732;SDS011;41637;52.364;9.910;2023-08-21T01:24:44;8.40;;;4.40;;
55732;SDS011;41637;52.364;9.910;2023-08-21T01:27:11;9.80;;;4.40;;
55732;SDS011;41637;52.364;9.910;2023-08-21T01:29:40;8.50;;;4.60;;
55732;SDS011;41637;52.364;9.910;2023-08-21T01:32:07;6.60;;;4.40;;
55732;SDS011;41637;52.364;9.910;2023-08-21T01:34:38;10.90;;;4.40;;
55732;SDS011;41637;52.364;9.910;2023-08-21T01:37:05;7.40;;;4.30;;
55732;SDS011;41637;52.364;9.910;2023-08-21T01:39:33;7.30;;;4.50;;
55732;SDS011;41637;52.364;9.910;2023-08-21T01:42:00;7.60;;;4.40;;
55732;SDS011;41637;52.364;9.910;2023-08-21T01:44:30;8.10;;;4.80;;
55732;SDS011;41637;52.364;9.910;2023-08-21T01:46:56;9.10;;;5.30;;
55732;SDS011;41637;52.364;9.910;2023-08-21T01:49:23;6.90;;;4.60;;
55732;SDS011;41637;52.364;9.910;2023-08-21T01:51:49;8.20;;;4.60;;
55732;SDS011;41637;52.364;9.910;2023-08-21T01:54:16;8.30;;;4.50;;
55732;SDS011;41637;52.364;9.910;2023-08-21T01:56:42;9.90;;;4.60;;
55732;SDS011;41637;52.364;9.910;2023-08-21T01:59:09;7.30;;;4.40;;
55732;SDS011;41637;52.364;9.910;2023-08-21T02:01:35;7.80;;;4.80;;
55732;SDS011;41637;52.364;9.910;2023-08-21T02:04:02;9.10;;;4.70;;
55732;SDS011;41637;52.364;9.910;2023-08-21T02:06:28;7.90;;;4.80;;
55732;SDS011;41637;52.364;9.910;2023-08-21T02:08:55;14.50;;;5.40;;
55732;SDS011;41637;52.364;9.910;2023-08-21T02:11:21;6.50;;;4.60;;
55732;SDS011;41637;52.364;9.910;2023-08-21T02:13:48;10.90;;;5.40;;
55732;SDS011;41637;52.364;9.910;2023-08-21T02:16:14;8.40;;;5.00;;
55732;SDS011;41637;52.364;9.910;2023-08-21T02:18:41;8.00;;;5.00;;
55732;SDS011;41637;52.364;9.910;2023-08-21T02:21:07;6.80;;;5.00;;
55732;SDS011;41637;52.364;9.910;2023-08-21T02:23:34;7.40;;;4.70;;
55732;SDS011;41637;52.364;9.910;2023-08-21T02:26:00;8.30;;;4.80;;
55732;SDS011;41637;52.364;9.910;2023-08-21T02:28:27;8.00;;;4.90;;
55732;SDS011;41637;52.364;9.910;2023-08-21T02:30:53;7.70;;;4.70;;
55732;SDS011;41637;52.364;9.910;2023-08-21T02:33:20;5.60;;;4.30;;
55732;SDS011;41637;52.364;9.910;2023-08-21T02:35:46;8.00;;;4.70;;
55732;SDS011;41637;52.364;9.910;2023-08-21T02:38:13;8.00;;;4.90;;
55732;SDS011;41637;52.364;9.910;2023-08-21T02:40:39;7.80;;;4.90;;
55732;SDS011;41637;52.364;9.910;2023-08-21T02:43:06;7.60;;;5.10;;
55732;SDS011;41637;52.364;9.910;2023-08-21T02:45:32;11.20;;;5.30;;
55732;SDS011;41637;52.364;9.910;2023-08-21T02:47:59;10.50;;;5.10;;
55732;SDS011;41637;52.364;9.910;2023-08-21T02:50:25;8.80;;;4.80;;
55732;SDS011;41637;52.364;9.910;2023-08-21T02:52:52;7.70;;;5.20;;
55732;SDS011;41637;52.364;9.910;2023-08-21T02:55:18;7.50;;;4.60;;
55732;SDS011;41637;52.364;9.910;2023-08-21T02:57:45;11.20;;;4.80;;
55732;SDS011;41637;52.364;9.910;2023-08-21T03:00:11;8.80;;;4.70;;
55732;SDS011;41637;52.364;9.910;2023-08-21T03:02:38;7.60;;;4.70;;
55732;SDS011;41637;52.364;9.910;2023-08-21T03:05:10;6.90;;;4.60;;
55732;SDS011;41637;52.364;9.910;2023-08-21T03:07:37;8.20;;;4.80;;
55732;SDS011;41637;52.364;9.910;2023-08-21T03:10:04;7.70;;;4.90;;
55732;SDS011;41637;52.364;9.910;2023-08-21T03:12:31;6.80;;;4.30;;
55732;SDS011;41637;52.364;9.910;2023-08-21T03:14:58;7.40;;;4.70;;
55732;SDS011;41637;52.364;9.910;2023-08-21T03:17:27;7.10;;;4.80;;
55732;SDS011;41637;52.364;9.910;2023-08-21T03:19:54;6.80;;;4.40;;
55732;SDS011;41637;52.364;9.910;2023-08-21T03:22:20;7.80;;;4.70;;
55732;SDS011;41637;52.364;9.910;2023-08-21T03:24:47;7.40;;;4.50;;
55732;SDS011;41637;52.364;9.910;2023-08-21T03:27:14;5.90;;;4.20;;
55732;SDS011;41637;52.364;9.910;2023-08-21T03:29:42;9.10;;;4.90;;
55732;SDS011;41637;52.364;9.910;2023-08-21T03:32:17;9.90;;;5.00;;
55732;SDS011;41637;52.364;9.910;2023-08-21T03:34:44;9.50;;;4.80;;
55732;SDS011;41637;52.364;9.910;2023-08-21T03:37:11;7.90;;;4.50;;
55732;SDS011;41637;52.364;9.910;2023-08-21T03:39:37;8.60;;;5.00;;
55732;SDS011;41637;52.364;9.910;2023-08-21T03:42:05;7.20;;;5.10;;
55732;SDS011;41637;52.364;9.910;2023-08-21T03:44:31;9.10;;;5.20;;
55732;SDS011;41637;52.364;9.910;2023-08-21T03:46:58;10.00;;;5.10;;
55732;SDS011;41637;52.364;9.910;2023-08-21T03:49:24;8.20;;;4.80;;
55732;SDS011;41637;52.364;9.910;2023-08-21T03:51:51;8.80;;;4.50;;
55732;SDS011;41637;52.364;9.910;2023-08-21T03:54:17;7.90;;;4.80;;
55732;SDS011;41637;52.364;9.910;2023-08-21T03:56:44;8.00;;;4.80;;
55732;SDS011;41637;52.364;9.910;2023-08-21T03:59:10;8.90;;;4.80;;
55732;SDS011;41637;52.364;9.910;2023-08-21T04:01:37;6.80;;;4.60;;
55732;SDS011;41637;52.364;9.910;2023-08-21T04:04:03;9.20;;;4.70;;
55732;SDS011;41637;52.364;9.910;2023-08-21T04:06:30;8.30;;;4.40;;
55732;SDS011;41637;52.364;9.910;2023-08-21T04:08:56;7.50;;;4.40;;
55732;SDS011;41637;52.364;9.910;2023-08-21T04:11:23;9.40;;;4.00;;
55732;SDS011;41637;52.364;9.910;2023-08-21T04:13:49;10.30;;;3.90;;
55732;SDS011;41637;52.364;9.910;2023-08-21T04:16:16;10.00;;;4.30;;
55732;SDS011;41637;52.364;9.910;2023-08-21T04:18:44;8.90;;;4.40;;
55732;SDS011;41637;52.364;9.910;2023-08-21T04:21:10;7.00;;;4.00;;
55732;SDS011;41637;52.364;9.910;2023-08-21T04:23:37;9.60;;;4.30;;
55732;SDS011;41637;52.364;9.910;2023-08-21T04:26:03;9.30;;;4.00;;
55732;SDS011;41637;52.364;9.910;2023-08-21T04:28:31;7.60;;;4.00;;
55732;SDS011;41637;52.364;9.910;2023-08-21T04:30:58;7.90;;;4.20;;
55732;SDS011;41637;52.364;9.910;2023-08-21T04:33:25;7.80;;;4.70;;
55732;SDS011;41637;52.364;9.910;2023-08-21T04:35:52;10.30;;;4.70;;
55732;SDS011;41637;52.364;9.910;2023-08-21T04:38:18;11.00;;;5.30;;
55732;SDS011;41637;52.364;9.910;2023-08-21T04:40:45;9.90;;;4.60;;
55732;SDS011;41637;52.364;9.910;2023-08-21T04:43:11;10.40;;;4.80;;
55732;SDS011;41637;52.364;9.910;2023-08-21T04:45:38;9.90;;;4.60;;
55732;SDS011;41637;52.364;9.910;2023-08-21T04:48:05;7.60;;;4.60;;
55732;SDS011;41637;52.364;9.910;2023-08-21T04:50:31;9.70;;;4.60;;
55732;SDS011;41637;52.364;9.910;2023-08-21T04:52:58;6.90;;;4.60;;
55732;SDS011;41637;52.364;9.910;2023-08-21T04:55:24;8.40;;;4.50;;
55732;SDS011;41637;52.364;9.910;2023-08-21T04:57:50;7.30;;;4.50;;
55732;SDS011;41637;52.364;9.910;2023-08-21T05:00:17;8.90;;;4.50;;
55732;SDS011;41637;52.364;9.910;2023-08-21T05:02:44;7.60;;;4.20;;
55732;SDS011;41637;52.364;9.910;2023-08-21T05:05:11;7.20;;;4.20;;
55732;SDS011;41637;52.364;9.910;2023-08-21T05:07:37;8.20;;;4.30;;
55732;SDS011;41637;52.364;9.910;2023-08-21T05:10:04;7.60;;;4.30;;
55732;SDS011;41637;52.364;9.910;2023-08-21T05:12:31;8.20;;;4.10;;
55732;SDS011;41637;52.364;9.910;2023-08-21T05:14:57;7.70;;;4.10;;
55732;SDS011;41637;52.364;9.910;2023-08-21T05:17:24;5.90;;;3.90;;
55732;SDS011;41637;52.364;9.910;2023-08-21T05:19:53;7.00;;;3.90;;
55732;SDS011;41637;52.364;9.910;2023-08-21T05:22:19;6.50;;;3.90;;
55732;SDS011;41637;52.364;9.910;2023-08-21T05:24:45;7.00;;;3.60;;
55732;SDS011;41637;52.364;9.910;2023-08-21T05:27:14;7.40;;;3.70;;
55732;SDS011;41637;52.364;9.910;2023-08-21T05:29:40;8.90;;;3.90;;
55732;SDS011;41637;52.364;9.910;2023-08-21T05:32:06;6.30;;;4.00;;
55732;SDS011;41637;52.364;9.910;2023-08-21T05:34:33;7.70;;;3.90;;
55732;SDS011;41637;52.364;9.910;2023-08-21T05:36:59;5.50;;;3.50;;
55732;SDS011;41637;52.364;9.910;2023-08-21T05:39:26;7.90;;;4.00;;
55732;SDS011;41637;52.364;9.910;2023-08-21T05:41:52;9.00;;;3.70;;
55732;SDS011;41637;52.364;9.910;2023-08-21T05:44:19;6.30;;;3.60;;
55732;SDS011;41637;52.364;9.910;2023-08-21T05:46:46;6.50;;;3.40;;
55732;SDS011;41637;52.364;9.910;2023-08-21T05:49:12;5.90;;;3.50;;
55732;SDS011;41637;52.364;9.910;2023-08-21T05:51:39;7.90;;;3.60;;
55732;SDS011;41637;52.364;9.910;2023-08-21T05:54:05;7.60;;;3.50;;
55732;SDS011;41637;52.364;9.910;2023-08-21T05:56:32;10.20;;;4.00;;
55732;SDS011;41637;52.364;9.910;2023-08-21T05:58:58;7.30;;;3.40;;
55732;SDS011;41637;52.364;9.910;2023-08-21T06:01:25;6.60;;;3.50;;
55732;SDS011;41637;52.364;9.910;2023-08-21T06:03:51;7.70;;;3.30;;
55732;SDS011;41637;52.364;9.910;2023-08-21T06:06:18;9.30;;;3.70;;
55732;SDS011;41637;52.364;9.910;2023-08-21T06:08:44;6.50;;;3.30;;
55732;SDS011;41637;52.364;9.910;2023-08-21T06:11:11;8.70;;;3.50;;
55732;SDS011;41637;52.364;9.910;2023-08-21T06:13:37;7.30;;;3.30;;
55732;SDS011;41637;52.364;9.910;2023-08-21T06:16:03;8.30;;;3.60;;
55732;SDS011;41637;52.364;9.910;2023-08-21T06:18:30;7.60;;;3.60;;
55732;SDS011;41637;52.364;9.910;2023-08-21T06:20:56;7.30;;;3.30;;
55732;SDS011;41637;52.364;9.910;2023-08-21T06:23:23;6.80;;;3.50;;
55732;SDS011;41637;52.364;9.910;2023-08-21T06:25:49;9.40;;;3.20;;
55732;SDS011;41637;52.364;9.910;2023-08-21T06:28:16;7.20;;;3.00;;
55732;SDS011;41637;52.364;9.910;2023-08-21T06:30:43;6.40;;;3.30;;
55732;SDS011;41637;52.364;9.910;2023-08-21T06:33:10;5.00;;;3.00;;
55732;SDS011;41637;52.364;9.910;2023-08-21T06:35:37;7.70;;;2.90;;
55732;SDS011;41637;52.364;9.910;2023-08-21T06:38:05;7.10;;;2.90;;
55732;SDS011;41637;52.364;9.910;2023-08-21T06:40:32;7.20;;;2.90;;
55732;SDS011;41637;52.364;9.910;2023-08-21T06:42:58;7.40;;;3.00;;
55732;SDS011;41637;52.364;9.910;2023-08-21T06:45:25;7.00;;;2.80;;
55732;SDS011;41637;52.364;9.910;2023-08-21T06:47:51;5.00;;;2.50;;
55732;SDS011;41637;52.364;9.910;2023-08-21T06:50:18;5.70;;;2.60;;
55732;SDS011;41637;52.364;9.910;2023-08-21T06:52:44;7.80;;;3.10;;
55732;SDS011;41637;52.364;9.910;2023-08-21T06:55:11;5.80;;;2.50;;
55732;SDS011;41637;52.364;9.910;2023-08-21T06:57:37;5.30;;;2.50;;
55732;SDS011;41637;52.364;9.910;2023-08-21T07:00:07;6.50;;;2.80;;
55732;SDS011;41637;52.364;9.910;2023-08-21T07:02:34;6.10;;;2.70;;
55732;SDS011;41637;52.364;9.910;2023-08-21T07:05:01;6.00;;;3.10;;
55732;SDS011;41637;52.364;9.910;2023-08-21T07:07:29;5.60;;;2.60;;
55732;SDS011;41637;52.364;9.910;2023-08-21T07:09:55;4.90;;;2.10;;
55732;SDS011;41637;52.364;9.910;2023-08-21T07:12:22;4.90;;;2.60;;
55732;SDS011;41637;52.364;9.910;2023-08-21T07:14:49;6.20;;;2.40;;
55732;SDS011;41637;52.364;9.910;2023-08-21T07:17:15;6.60;;;2.30;;
55732;SDS011;41637;52.364;9.910;2023-08-21T07:19:42;6.80;;;2.30;;
55732;SDS011;41637;52.364;9.910;2023-08-21T07:22:11;7.80;;;2.30;;
55732;SDS011;41637;52.364;9.910;2023-08-21T07:24:37;5.70;;;2.40;;
55732;SDS011;41637;52.364;9.910;2023-08-21T07:27:04;6.30;;;1.70;;
55732;SDS011;41637;52.364;9.910;2023-08-21T07:29:30;9.90;;;2.30;;
55732;SDS011;41637;52.364;9.910;2023-08-21T07:31:57;7.60;;;2.00;;
55732;SDS011;41637;52.364;9.910;2023-08-21T07:34:23;10.50;;;1.90;;
55732;SDS011;41637;52.364;9.910;2023-08-21T07:36:50;7.10;;;2.10;;
55732;SDS011;41637;52.364;9.910;2023-08-21T07:39:16;5.60;;;1.50;;
55732;SDS011;41637;52.364;9.910;2023-08-21T07:41:43;7.20;;;1.60;;
55732;SDS011;41637;52.364;9.910;2023-08-21T07:44:09;5.00;;;1.70;;
55732;SDS011;41637;52.364;9.910;2023-08-21T07:46:35;7.60;;;1.80;;
55732;SDS011;41637;52.364;9.910;2023-08-21T07:49:02;4.90;;;1.70;;
55732;SDS011;41637;52.364;9.910;2023-08-21T07:51:28;5.60;;;1.50;;
55732;SDS011;41637;52.364;9.910;2023-08-21T07:53:55;5.70;;;1.60;;
55732;SDS011;41637;52.364;9.910;2023-08-21T07:56:25;4.30;;;1.70;;
55732;SDS011;41637;52.364;9.910;2023-08-21T07:58:51;5.20;;;1.40;;
55732;SDS011;41637;52.364;9.910;2023-08-21T08:01:17;4.60;;;1.60;;
55732;SDS011;41637;52.364;9.910;2023-08-21T08:03:47;5.60;;;1.90;;
55732;SDS011;41637;52.364;9.910;2023-08-21T08:06:13;5.40;;;1.50;;
55732;SDS011;41637;52.364;9.910;2023-08-21T08:08:40;4.10;;;1.30;;
55732;SDS011;41637;52.364;9.910;2023-08-21T08:11:07;3.50;;;1.20;;
55732;SDS011;41637;52.364;9.910;2023-08-21T08:13:33;4.90;;;1.60;;
55732;SDS011;41637;52.364;9.910;2023-08-21T08:16:00;4.80;;;1.60;;
55732;SDS011;41637;52.364;9.910;2023-08-21T08:18:27;6.20;;;1.80;;
55732;SDS011;41637;52.364;9.910;2023-08-21T08:20:53;5.10;;;1.50;;
55732;SDS011;41637;52.364;9.910;2023-08-21T08:23:20;4.80;;;1.50;;
55732;SDS011;41637;52.364;9.910;2023-08-21T08:25:47;8.20;;;1.80;;
55732;SDS011;41637;52.364;9.910;2023-08-21T08:28:13;3.20;;;1.20;;
55732;SDS011;41637;52.364;9.910;2023-08-21T08:30:40;7.00;;;1.70;;
55732;SDS011;41637;52.364;9.910;2023-08-21T08:33:06;3.80;;;1.50;;
55732;SDS011;41637;52.364;9.910;2023-08-21T08:35:33;4.70;;;1.50;;
55732;SDS011;41637;52.364;9.910;2023-08-21T08:37:59;4.80;;;1.60;;
55732;SDS011;41637;52.364;9.910;2023-08-21T08:40:26;5.30;;;1.70;;
55732;SDS011;41637;52.364;9.910;2023-08-21T08:42:52;6.40;;;1.50;;
55732;SDS011;41637;52.364;9.910;2023-08-21T08:45:23;5.60;;;1.60;;
55732;SDS011;41637;52.364;9.910;2023-08-21T08:48:01;5.00;;;1.20;;
55732;SDS011;41637;52.364;9.910;2023-08-21T08:50:32;5.30;;;1.20;;
55732;SDS011;41637;52.364;9.910;2023-08-21T08:52:59;3.70;;;1.20;;
55732;SDS011;41637;52.364;9.910;2023-08-21T08:55:40;5.50;;;1.50;;
55732;SDS011;41637;52.364;9.910;2023-08-21T08:58:06;4.60;;;1.60;;
55732;SDS011;41637;52.364;9.910;2023-08-21T09:00:33;4.60;;;1.30;;
55732;SDS011;41637;52.364;9.910;2023-08-21T09:03:00;3.90;;;1.20;;
55732;SDS011;41637;52.364;9.910;2023-08-21T09:05:26;4.20;;;1.10;;
55732;SDS011;41637;52.364;9.910;2023-08-21T09:08:01;5.70;;;1.20;;
55732;SDS011;41637;52.364;9.910;2023-08-21T09:10:38;5.00;;;1.10;;
55732;SDS011;41637;52.364;9.910;2023-08-21T09:13:13;4.00;;;1.10;;
55732;SDS011;41637;52.364;9.910;2023-08-21T09:15:42;5.30;;;1.20;;
55732;SDS011;41637;52.364;9.910;2023-08-21T09:18:10;4.90;;;1.00;;
55732;SDS011;41637;52.364;9.910;2023-08-21T09:20:37;3.10;;;0.90;;
55732;SDS011;41637;52.364;9.910;2023-08-21T09:23:04;4.30;;;1.30;;
55732;SDS011;41637;52.364;9.910;2023-08-21T09:25:37;5.00;;;1.30;;
55732;SDS011;41637;52.364;9.910;2023-08-21T09:28:05;4.50;;;1.30;;
55732;SDS011;41637;52.364;9.910;2023-08-21T09:30:46;3.30;;;0.90;;
55732;SDS011;41637;52.364;9.910;2023-08-21T09:33:17;7.20;;;1.20;;
55732;SDS011;41637;52.364;9.910;2023-08-21T09:35:45;3.70;;;1.10;;
55732;SDS011;41637;52.364;9.910;2023-08-21T09:38:12;2.90;;;1.00;;
55732;SDS011;41637;52.364;9.910;2023-08-21T09:40:42;5.80;;;1.20;;
55732;SDS011;41637;52.364;9.910;2023-08-21T09:43:17;2.40;;;1.00;;
55732;SDS011;41637;52.364;9.910;2023-08-21T09:45:47;6.20;;;1.10;;
55732;SDS011;41637;52.364;9.910;2023-08-21T09:48:15;5.30;;;1.20;;
55732;SDS011;41637;52.364;9.910;2023-08-21T09:50:42;3.50;;;1.30;;
55732;SDS011;41637;52.364;9.910;2023-08-21T09:53:12;5.60;;;1.20;;
55732;SDS011;41637;52.364;9.910;2023-08-21T09:55:39;3.60;;;1.10;;
55732;SDS011;41637;52.364;9.910;2023-08-21T09:58:06;4.00;;;1.00;;
55732;SDS011;41637;52.364;9.910;2023-08-21T10:00:33;2.90;;;1.00;;
55732;SDS011;41637;52.364;9.910;2023-08-21T10:03:02;5.90;;;1.20;;
55732;SDS011;41637;52.364;9.910;2023-08-21T10:05:34;3.80;;;1.00;;
55732;SDS011;41637;52.364;9.910;2023-08-21T10:08:02;3.50;;;1.00;;
55732;SDS011;41637;52.364;9.910;2023-08-21T10:10:34;3.20;;;1.00;;
55732;SDS011;41637;52.364;9.910;2023-08-21T10:13:02;4.80;;;1.30;;
55732;SDS011;41637;52.364;9.910;2023-08-21T10:15:30;3.80;;;1.20;;
55732;SDS011;41637;52.364;9.910;2023-08-21T10:17:58;3.50;;;1.40;;
55732;SDS011;41637;52.364;9.910;2023-08-21T10:20:47;6.20;;;1.30;;
55732;SDS011;41637;52.364;9.910;2023-08-21T10:23:24;4.10;;;1.00;;
55732;SDS011;41637;52.364;9.910;2023-08-21T10:25:58;4.50;;;1.20;;
55732;SDS011;41637;52.364;9.910;2023-08-21T10:28:47;3.40;;;1.00;;
55732;SDS011;41637;52.364;9.910;2023-08-21T10:33:53;3.40;;;1.10;;
55732;SDS011;41637;52.364;9.910;2023-08-21T10:39:07;4.00;;;1.00;;
55732;SDS011;41637;52.364;9.910;2023-08-21T10:41:39;4.10;;;1.20;;
55732;SDS011;41637;52.364;9.910;2023-08-21T10:44:05;3.80;;;0.90;;
55732;SDS011;41637;52.364;9.910;2023-08-21T10:46:51;5.70;;;1.00;;
55732;SDS011;41637;52.364;9.910;2023-08-21T10:49:18;4.00;;;1.00;;
55732;SDS011;41637;52.364;9.910;2023-08-21T10:51:45;5.50;;;1.10;;
55732;SDS011;41637;52.364;9.910;2023-08-21T10:54:15;4.70;;;1.10;;
55732;SDS011;41637;52.364;9.910;2023-08-21T10:56:42;3.20;;;0.90;;
55732;SDS011;41637;52.364;9.910;2023-08-21T10:59:08;7.80;;;1.60;;
55732;SDS011;41637;52.364;9.910;2023-08-21T11:01:45;5.20;;;1.00;;
55732;SDS011;41637;52.364;9.910;2023-08-21T11:04:12;3.10;;;0.90;;
55732;SDS011;41637;52.364;9.910;2023-08-21T11:06:38;5.80;;;1.10;;
55732;SDS011;41637;52.364;9.910;2023-08-21T11:09:07;3.00;;;1.00;;
55732;SDS011;41637;52.364;9.910;2023-08-21T11:11:38;4.50;;;0.90;;
55732;SDS011;41637;52.364;9.910;2023-08-21T11:14:05;2.80;;;1.00;;
55732;SDS011;41637;52.364;9.910;2023-08-21T11:16:31;4.70;;;1.20;;
55732;SDS011;41637;52.364;9.910;2023-08-21T11:18:58;3.30;;;0.90;;
55732;SDS011;41637;52.364;9.910;2023-08-21T11:21:29;2.70;;;1.00;;
55732;SDS011;41637;52.364;9.910;2023-08-21T11:23:56;3.80;;;1.10;;
55732;SDS011;41637;52.364;9.910;2023-08-21T11:26:23;3.30;;;0.80;;
55732;SDS011;41637;52.364;9.910;2023-08-21T11:28:51;2.80;;;0.90;;
55732;SDS011;41637;52.364;9.910;2023-08-21T11:31:17;3.50;;;1.30;;
55732;SDS011;41637;52.364;9.910;2023-08-21T11:33:53;3.60;;;0.90;;
55732;SDS011;41637;52.364;9.910;2023-08-21T11:36:20;2.70;;;0.70;;
55732;SDS011;41637;52.364;9.910;2023-08-21T11:39:02;4.20;;;0.90;;
55732;SDS011;41637;52.364;9.910;2023-08-21T11:41:52;2.30;;;0.70;;
55732;SDS011;41637;52.364;9.910;2023-08-21T11:44:19;3.20;;;0.90;;
55732;SDS011;41637;52.364;9.910;2023-08-21T11:46:46;5.20;;;1.00;;
55732;SDS011;41637;52.364;9.910;2023-08-21T11:49:12;4.70;;;1.00;;
55732;SDS011;41637;52.364;9.910;2023-08-21T11:51:39;3.50;;;0.80;;
55732;SDS011;41637;52.364;9.910;2023-08-21T11:54:06;3.00;;;0.70;;
55732;SDS011;41637;52.364;9.910;2023-08-21T11:56:32;3.20;;;0.70;;
55732;SDS011;41637;52.364;9.910;2023-08-21T11:58:59;3.50;;;0.80;;
55732;SDS011;41637;52.364;9.910;2023-08-21T12:01:27;3.10;;;0.90;;
55732;SDS011;41637;52.364;9.910;2023-08-21T12:03:59;4.50;;;0.90;;
55732;SDS011;41637;52.364;9.910;2023-08-21T12:06:25;3.30;;;0.90;;
55732;SDS011;41637;52.364;9.910;2023-08-21T12:08:53;3.70;;;0.90;;
55732;SDS011;41637;52.364;9.910;2023-08-21T12:11:20;3.80;;;0.90;;
55732;SDS011;41637;52.364;9.910;2023-08-21T12:13:47;3.20;;;0.80;;
55732;SDS011;41637;52.364;9.910;2023-08-21T12:16:13;5.30;;;0.90;;
55732;SDS011;41637;52.364;9.910;2023-08-21T12:18:40;7.40;;;1.20;;
55732;SDS011;41637;52.364;9.910;2023-08-21T12:21:06;4.30;;;1.00;;
55732;SDS011;41637;52.364;9.910;2023-08-21T12:23:34;4.70;;;1.10;;
55732;SDS011;41637;52.364;9.910;2023-08-21T12:26:00;4.80;;;0.90;;
55732;SDS011;41637;52.364;9.910;2023-08-21T12:28:27;8.50;;;1.00;;
55732;SDS011;41637;52.364;9.910;2023-08-21T12:30:53;3.90;;;1.10;;
55732;SDS011;41637;52.364;9.910;2023-08-21T12:33:20;6.40;;;1.00;;
55732;SDS011;41637;52.364;9.910;2023-08-21T12:35:50;4.10;;;0.90;;
55732;SDS011;41637;52.364;9.910;2023-08-21T12:38:16;4.40;;;1.10;;
55732;SDS011;41637;52.364;9.910;2023-08-21T12:40:43;4.70;;;1.30;;
55732;SDS011;41637;52.364;9.910;2023-08-21T12:43:09;3.70;;;0.80;;
55732;SDS011;41637;52.364;9.910;2023-08-21T12:45:36;4.20;;;0.80;;
55732;SDS011;41637;52.364;9.910;2023-08-21T12:48:03;4.40;;;1.00;;
55732;SDS011;41637;52.364;9.910;2023-08-21T12:50:30;4.10;;;1.00;;
55732;SDS011;41637;52.364;9.910;2023-08-21T12:52:57;5.80;;;1.00;;
55732;SDS011;41637;52.364;9.910;2023-08-21T12:55:23;3.10;;;0.80;;
55732;SDS011;41637;52.364;9.910;2023-08-21T12:57:50;5.30;;;0.80;;
55732;SDS011;41637;52.364;9.910;2023-08-21T13:00:16;4.40;;;1.20;;
55732;SDS011;41637;52.364;9.910;2023-08-21T13:02:44;3.00;;;0.80;;
55732;SDS011;41637;52.364;9.910;2023-08-21T13:05:10;4.00;;;0.70;;
55732;SDS011;41637;52.364;9.910;2023-08-21T13:07:37;5.30;;;1.00;;
55732;SDS011;41637;52.364;9.910;2023-08-21T13:10:03;3.90;;;1.20;;
55732;SDS011;41637;52.364;9.910;2023-08-21T13:12:30;7.40;;;1.40;;
55732;SDS011;41637;52.364;9.910;2023-08-21T13:14:57;3.00;;;0.80;;
55732;SDS011;41637;52.364;9.910;2023-08-21T13:17:24;4.80;;;0.90;;
55732;SDS011;41637;52.364;9.910;2023-08-21T13:19:51;4.30;;;1.00;;
55732;SDS011;41637;52.364;9.910;2023-08-21T13:22:18;3.30;;;0.60;;
55732;SDS011;41637;52.364;9.910;2023-08-21T13:24:44;3.70;;;0.90;;
55732;SDS011;41637;52.364;9.910;2023-08-21T13:27:11;2.90;;;0.70;;
55732;SDS011;41637;52.364;9.910;2023-08-21T13:29:37;3.70;;;0.90;;
55732;SDS011;41637;52.364;9.910;2023-08-21T13:32:06;3.50;;;0.80;;
55732;SDS011;41637;52.364;9.910;2023-08-21T13:34:32;8.30;;;1.30;;
55732;SDS011;41637;52.364;9.910;2023-08-21T13:36:59;3.80;;;0.80;;
55732;SDS011;41637;52.364;9.910;2023-08-21T13:39:25;2.70;;;0.70;;
55732;SDS011;41637;52.364;9.910;2023-08-21T13:41:52;2.20;;;0.80;;
55732;SDS011;41637;52.364;9.910;2023-08-21T13:44:19;3.70;;;0.80;;
55732;SDS011;41637;52.364;9.910;2023-08-21T13:46:45;2.50;;;0.60;;
55732;SDS011;41637;52.364;9.910;2023-08-21T13:49:12;2.80;;;0.70;;
55732;SDS011;41637;52.364;9.910;2023-08-21T13:51:39;4.10;;;0.80;;
55732;SDS011;41637;52.364;9.910;2023-08-21T13:54:05;2.70;;;0.50;;
55732;SDS011;41637;52.364;9.910;2023-08-21T13:56:32;3.10;;;0.70;;
55732;SDS011;41637;52.364;9.910;2023-08-21T13:58:58;2.00;;;0.50;;
55732;SDS011;41637;52.364;9.910;2023-08-21T14:01:25;1.70;;;0.50;;
55732;SDS011;41637;52.364;9.910;2023-08-21T14:03:51;1.90;;;0.60;;
55732;SDS011;41637;52.364;9.910;2023-08-21T14:06:18;2.10;;;0.50;;
55732;SDS011;41637;52.364;9.910;2023-08-21T14:08:44;2.00;;;0.40;;
55732;SDS011;41637;52.364;9.910;2023-08-21T14:11:11;2.80;;;0.60;;
55732;SDS011;41637;52.364;9.910;2023-08-21T14:13:37;2.10;;;0.60;;
55732;SDS011;41637;52.364;9.910;2023-08-21T14:16:04;4.10;;;1.10;;
55732;SDS011;41637;52.364;9.910;2023-08-21T14:18:31;3.30;;;0.70;;
55732;SDS011;41637;52.364;9.910;2023-08-21T14:20:57;4.10;;;0.70;;
55732;SDS011;41637;52.364;9.910;2023-08-21T14:23:24;2.00;;;0.80;;
55732;SDS011;41637;52.364;9.910;2023-08-21T14:25:50;2.60;;;0.70;;
55732;SDS011;41637;52.364;9.910;2023-08-21T14:28:18;1.60;;;0.60;;
55732;SDS011;41637;52.364;9.910;2023-08-21T14:30:44;2.40;;;0.60;;
55732;SDS011;41637;52.364;9.910;2023-08-21T14:33:13;2.00;;;0.60;;
55732;SDS011;41637;52.364;9.910;2023-08-21T14:35:40;4.20;;;0.80;;
55732;SDS011;41637;52.364;9.910;2023-08-21T14:38:06;3.00;;;0.70;;
55732;SDS011;41637;52.364;9.910;2023-08-21T14:40:33;2.10;;;0.70;;
55732;SDS011;41637;52.364;9.910;2023-08-21T14:42:59;2.80;;;0.70;;
55732;SDS011;41637;52.364;9.910;2023-08-21T14:45:26;1.90;;;0.70;;
55732;SDS011;41637;52.364;9.910;2023-08-21T14:47:52;2.50;;;0.70;;
55732;SDS011;41637;52.364;9.910;2023-08-21T14:50:19;2.50;;;0.70;;
55732;SDS011;41637;52.364;9.910;2023-08-21T14:52:46;2.10;;;0.80;;
55732;SDS011;41637;52.364;9.910;2023-08-21T14:55:14;3.00;;;0.90;;
55732;SDS011;41637;52.364;9.910;2023-08-21T14:57:41;3.40;;;0.80;;
55732;SDS011;41637;52.364;9.910;2023-08-21T15:00:08;2.70;;;0.80;;